createdAt,value
2022-07-28T00:00:52.256Z,17.70
2022-07-28T00:03:18.985Z,17.60
2022-07-28T00:05:46.970Z,17.60
2022-07-28T00:08:16.612Z,17.60
2022-07-28T00:10:43.349Z,17.60
2022-07-28T00:13:10.182Z,17.60
2022-07-28T00:15:36.925Z,17.60
2022-07-28T00:18:03.707Z,17.50
2022-07-28T00:20:30.801Z,17.50
2022-07-28T00:22:57.713Z,17.40
2022-07-28T00:25:24.620Z,17.50
2022-07-28T00:27:51.309Z,17.40
2022-07-28T00:30:17.959Z,17.40
2022-07-28T00:32:44.633Z,17.40
2022-07-28T00:35:12.352Z,17.30
2022-07-28T00:37:40.224Z,17.30
2022-07-28T00:40:10.253Z,17.20
2022-07-28T00:42:37.161Z,17.20
2022-07-28T00:45:04.507Z,17.20
2022-07-28T00:47:33.867Z,17.20
2022-07-28T00:50:04.448Z,17.10
2022-07-28T00:52:32.098Z,17.10
2022-07-28T00:54:59.530Z,17.00
2022-07-28T00:57:26.228Z,17.10
2022-07-28T00:59:52.901Z,17.00
2022-07-28T01:02:20.231Z,17.00
2022-07-28T01:04:47.445Z,17.00
2022-07-28T01:07:34.138Z,16.90
2022-07-28T01:10:09.991Z,16.90
2022-07-28T01:12:58.550Z,16.90
2022-07-28T01:15:36.979Z,16.90
2022-07-28T01:18:24.440Z,16.90
2022-07-28T01:20:54.951Z,16.80
2022-07-28T01:23:33.616Z,16.80
2022-07-28T01:26:18.975Z,16.80
2022-07-28T01:29:02.910Z,16.80
2022-07-28T01:31:44.046Z,16.70
2022-07-28T01:34:18.547Z,16.70
2022-07-28T01:36:59.448Z,16.60
2022-07-28T01:39:32.195Z,16.70
2022-07-28T01:42:00.480Z,16.70
2022-07-28T01:44:28.897Z,16.60
2022-07-28T01:46:58.957Z,16.60
2022-07-28T01:49:27.765Z,16.60
2022-07-28T01:51:57.447Z,16.50
2022-07-28T01:54:28.330Z,16.50
2022-07-28T01:56:57.249Z,16.50
2022-07-28T01:59:26.094Z,16.50
2022-07-28T02:01:54.162Z,16.50
2022-07-28T02:04:23.444Z,16.50
2022-07-28T02:06:52.401Z,16.50
2022-07-28T02:09:20.963Z,16.50
2022-07-28T02:11:49.979Z,16.50
2022-07-28T02:14:20.953Z,16.50
2022-07-28T02:16:57.185Z,16.50
2022-07-28T02:19:25.620Z,16.50
2022-07-28T02:21:54.387Z,16.50
2022-07-28T02:24:26.397Z,16.50
2022-07-28T02:27:01.557Z,16.40
2022-07-28T02:29:50.224Z,16.50
2022-07-28T02:32:28.911Z,16.40
2022-07-28T02:35:05.264Z,16.40
2022-07-28T02:37:37.717Z,16.30
2022-07-28T02:40:06.356Z,16.30
2022-07-28T02:42:35.554Z,16.30
2022-07-28T02:45:06.839Z,16.20
2022-07-28T02:47:40.102Z,16.30
2022-07-28T02:50:08.551Z,16.30
2022-07-28T02:52:36.484Z,16.30
2022-07-28T02:55:04.153Z,16.30
2022-07-28T02:57:32.019Z,16.20
2022-07-28T02:59:59.049Z,16.20
2022-07-28T03:02:30.608Z,16.20
2022-07-28T03:05:11.556Z,16.20
2022-07-28T03:07:50.347Z,16.20
2022-07-28T03:10:32.947Z,16.20
2022-07-28T03:13:02.867Z,16.10
2022-07-28T03:15:29.625Z,16.10
2022-07-28T03:17:56.262Z,16.10
2022-07-28T03:20:22.928Z,16.10
2022-07-28T03:22:49.566Z,16.10
2022-07-28T03:25:34.085Z,16.10
2022-07-28T03:28:02.286Z,16.20
2022-07-28T03:30:34.782Z,16.10
2022-07-28T03:33:03.406Z,16.00
2022-07-28T03:35:32.710Z,16.00
2022-07-28T03:38:14.273Z,16.10
2022-07-28T03:40:46.053Z,16.00
2022-07-28T03:43:16.121Z,16.00
2022-07-28T03:45:46.785Z,16.00
2022-07-28T03:48:14.378Z,16.00
2022-07-28T03:50:41.315Z,15.90
2022-07-28T03:53:21.499Z,16.00
2022-07-28T03:55:50.769Z,16.00
2022-07-28T03:58:21.933Z,16.00
2022-07-28T04:00:53.336Z,15.90
2022-07-28T04:03:35.360Z,15.90
2022-07-28T04:06:07.380Z,15.90
2022-07-28T04:08:34.117Z,15.90
2022-07-28T04:11:00.777Z,16.00
2022-07-28T04:13:27.433Z,15.90
2022-07-28T04:15:54.090Z,16.00
2022-07-28T04:18:20.729Z,15.90
2022-07-28T04:20:47.406Z,15.90
2022-07-28T04:23:14.093Z,15.90
2022-07-28T04:25:40.890Z,15.90
2022-07-28T04:28:07.513Z,15.90
2022-07-28T04:30:34.300Z,16.00
2022-07-28T04:33:06.256Z,16.00
2022-07-28T04:35:34.768Z,16.00
2022-07-28T04:38:01.807Z,16.00
2022-07-28T04:40:28.646Z,16.10
2022-07-28T04:42:56.547Z,16.10
2022-07-28T04:45:23.264Z,16.10
2022-07-28T04:47:51.698Z,16.10
2022-07-28T04:50:18.974Z,16.10
2022-07-28T04:52:49.160Z,16.10
2022-07-28T04:55:16.416Z,16.10
2022-07-28T04:57:44.060Z,16.10
2022-07-28T05:00:14.726Z,16.10
2022-07-28T05:02:43.389Z,16.20
2022-07-28T05:05:11.364Z,16.10
2022-07-28T05:07:39.059Z,16.20
2022-07-28T05:10:07.672Z,16.20
2022-07-28T05:12:34.364Z,16.20
2022-07-28T05:15:01.295Z,16.20
2022-07-28T05:17:28.054Z,16.30
2022-07-28T05:19:54.753Z,16.40
2022-07-28T05:22:21.425Z,16.40
2022-07-28T05:24:48.117Z,16.40
2022-07-28T05:27:14.766Z,16.50
2022-07-28T05:29:47.204Z,16.50
2022-07-28T05:32:16.559Z,16.60
2022-07-28T05:34:44.891Z,16.70
2022-07-28T05:37:12.023Z,16.70
2022-07-28T05:39:38.885Z,16.80
2022-07-28T05:42:05.794Z,16.90
2022-07-28T05:44:37.543Z,16.90
2022-07-28T05:47:05.410Z,17.10
2022-07-28T05:49:32.052Z,17.10
2022-07-28T05:51:58.705Z,17.10
2022-07-28T05:54:25.483Z,17.10
2022-07-28T05:56:52.810Z,17.20
2022-07-28T05:59:19.556Z,17.20
2022-07-28T06:01:46.688Z,17.30
2022-07-28T06:04:27.558Z,17.40
2022-07-28T06:06:54.814Z,17.40
2022-07-28T06:09:21.451Z,17.50
2022-07-28T06:11:50.211Z,17.60
2022-07-28T06:14:17.456Z,17.80
2022-07-28T06:16:44.977Z,17.80
2022-07-28T06:19:12.142Z,17.90
2022-07-28T06:21:38.876Z,17.90
2022-07-28T06:24:08.619Z,18.00
2022-07-28T10:41:14.128Z,18.20
2022-07-28T10:43:42.916Z,24.70
2022-07-28T10:46:16.405Z,24.50
2022-07-28T10:48:44.369Z,24.40
2022-07-28T10:51:11.949Z,24.60
2022-07-28T10:53:53.104Z,24.80
2022-07-28T10:56:47.319Z,24.90
2022-07-28T10:59:40.076Z,25.00
2022-07-28T11:02:06.930Z,24.80
2022-07-28T11:04:49.399Z,24.90
2022-07-28T11:07:17.979Z,24.90
2022-07-28T11:09:47.306Z,25.00
2022-07-28T11:12:15.435Z,25.10
2022-07-28T11:14:43.046Z,25.20
2022-07-28T11:17:11.268Z,25.30
2022-07-28T11:20:06.763Z,25.50
2022-07-28T11:22:33.231Z,25.60
2022-07-28T11:25:19.332Z,25.60
2022-07-28T11:27:51.926Z,25.60
2022-07-28T11:30:37.030Z,25.60
2022-07-28T11:33:09.390Z,25.60
2022-07-28T11:35:39.241Z,25.70
2022-07-28T11:38:06.273Z,25.70
2022-07-28T11:40:38.011Z,25.80
2022-07-28T11:43:36.065Z,25.90
2022-07-28T11:46:10.450Z,25.90
2022-07-28T11:48:45.031Z,25.90
2022-07-28T11:51:13.381Z,25.90
2022-07-28T11:53:47.075Z,25.90
2022-07-28T11:56:16.502Z,26.00
2022-07-28T11:58:43.605Z,26.10
2022-07-28T12:01:17.984Z,25.90
2022-07-28T12:03:55.023Z,26.00
2022-07-28T12:06:28.755Z,26.10
2022-07-28T12:09:07.020Z,26.30
2022-07-28T12:11:35.642Z,26.50
2022-07-28T12:14:04.405Z,26.50
2022-07-28T12:16:32.548Z,26.70
2022-07-28T12:19:00.640Z,26.80
2022-07-28T12:21:47.776Z,26.90
2022-07-28T12:24:30.031Z,26.90
2022-07-28T12:27:00.542Z,27.00
2022-07-28T12:29:35.846Z,27.20
2022-07-28T12:32:06.490Z,27.20
2022-07-28T12:34:37.957Z,27.30
2022-07-28T12:37:09.556Z,27.30
2022-07-28T12:39:39.559Z,27.40
2022-07-28T12:42:09.532Z,27.50
2022-07-28T12:44:38.738Z,27.60
2022-07-28T12:47:08.224Z,27.80
2022-07-28T12:49:36.394Z,27.80
2022-07-28T12:52:22.066Z,27.80
2022-07-28T12:54:54.840Z,27.80
2022-07-28T12:57:46.204Z,27.70
2022-07-28T13:00:19.697Z,27.70
2022-07-28T13:02:47.661Z,27.90
2022-07-28T13:05:55.551Z,28.10
2022-07-28T13:08:24.543Z,28.00
2022-07-28T13:10:56.684Z,28.00
2022-07-28T13:13:24.321Z,28.00
2022-07-28T13:16:10.805Z,28.00
2022-07-28T13:18:45.107Z,27.90
2022-07-28T13:21:12.120Z,28.00
2022-07-28T13:23:39.292Z,28.10
2022-07-28T13:26:07.280Z,28.20
2022-07-28T13:28:34.199Z,28.30
2022-07-28T13:31:00.905Z,28.40
2022-07-28T13:33:28.350Z,28.40
2022-07-28T13:35:55.263Z,28.50
2022-07-28T13:38:22.162Z,28.50
2022-07-28T13:40:49.381Z,28.70
2022-07-28T13:43:16.467Z,28.90
2022-07-28T13:45:43.364Z,29.00
2022-07-28T13:48:10.151Z,28.90
2022-07-28T13:50:37.357Z,29.10
2022-07-28T13:53:04.120Z,29.10
2022-07-28T13:55:30.856Z,29.20
2022-07-28T13:57:57.582Z,29.40
2022-07-28T14:00:24.350Z,29.60
2022-07-28T14:02:51.487Z,29.60
2022-07-28T14:05:18.939Z,29.60
2022-07-28T14:07:48.634Z,29.90
2022-07-28T14:10:16.942Z,29.90
2022-07-28T14:12:45.005Z,30.00
2022-07-28T14:15:12.868Z,30.00
2022-07-28T14:17:45.550Z,30.00
2022-07-28T14:20:14.806Z,30.10
2022-07-28T14:22:43.015Z,30.30
2022-07-28T14:25:10.204Z,30.50
2022-07-28T14:27:36.944Z,30.20
2022-07-28T14:30:04.694Z,30.40
2022-07-28T14:32:32.833Z,30.70
2022-07-28T14:34:59.702Z,31.10
2022-07-28T14:37:28.824Z,31.40
2022-07-28T14:39:55.579Z,31.60
2022-07-28T14:42:22.309Z,31.70
2022-07-28T14:44:49.040Z,32.00
2022-07-28T14:47:17.510Z,32.50
2022-07-28T14:49:58.293Z,33.10
2022-07-28T14:54:53.986Z,33.40
2022-07-28T15:02:18.936Z,34.30
2022-07-28T15:04:56.311Z,34.70
2022-07-28T15:07:23.019Z,34.40
2022-07-28T15:09:50.691Z,33.40
2022-07-28T15:12:17.546Z,32.80
2022-07-28T15:14:44.239Z,32.60
2022-07-28T15:17:11.001Z,32.30
2022-07-28T15:19:38.881Z,32.00
2022-07-28T15:22:06.388Z,32.10
2022-07-28T15:24:35.015Z,31.80
2022-07-28T15:27:02.872Z,31.60
2022-07-28T15:29:35.345Z,31.30
2022-07-28T15:32:04.288Z,31.30
2022-07-28T15:34:31.438Z,31.40
2022-07-28T15:36:58.135Z,31.20
2022-07-28T15:39:24.880Z,31.40
2022-07-28T15:41:57.585Z,31.30
2022-07-28T15:44:25.822Z,31.40
2022-07-28T15:46:52.948Z,31.50
2022-07-28T15:49:19.994Z,31.70
2022-07-28T15:51:46.731Z,31.70
2022-07-28T15:54:14.298Z,31.60
2022-07-28T15:56:42.389Z,31.40
2022-07-28T15:59:09.383Z,31.30
2022-07-28T16:01:36.157Z,31.50
2022-07-28T16:04:03.006Z,31.40
2022-07-28T16:06:48.549Z,31.60
2022-07-28T16:09:15.523Z,31.80
2022-07-28T16:11:42.750Z,31.80
2022-07-28T16:14:09.604Z,31.80
2022-07-28T16:16:36.841Z,32.00
2022-07-28T16:21:30.721Z,32.40
2022-07-28T16:23:57.370Z,32.40
2022-07-28T16:26:24.056Z,32.50
2022-07-28T16:28:54.424Z,32.60
2022-07-28T16:31:21.558Z,32.70
2022-07-28T16:33:49.046Z,32.80
2022-07-28T16:36:16.098Z,32.60
2022-07-28T16:38:43.097Z,32.70
2022-07-28T16:41:11.420Z,32.60
2022-07-28T16:43:44.760Z,32.70
2022-07-28T16:46:12.460Z,32.70
2022-07-28T16:48:42.428Z,32.70
2022-07-28T16:51:11.379Z,32.70
2022-07-28T16:53:38.147Z,32.70
2022-07-28T17:00:59.527Z,32.80
2022-07-28T17:33:18.077Z,33.00
2022-07-28T17:35:45.363Z,32.20
2022-07-28T17:38:12.589Z,31.70
2022-07-28T17:40:41.651Z,31.70
2022-07-28T17:43:13.187Z,31.70
2022-07-28T17:45:40.649Z,31.40
2022-07-28T17:48:07.690Z,31.10
2022-07-28T17:50:34.718Z,30.90
2022-07-28T17:53:01.880Z,30.60
2022-07-28T17:55:40.673Z,30.40
2022-07-28T17:58:27.096Z,30.10
2022-07-28T18:01:10.441Z,29.70
2022-07-28T18:03:59.264Z,29.50
2022-07-28T18:06:32.802Z,29.20
2022-07-28T18:09:05.525Z,28.90
2022-07-28T18:11:55.715Z,28.60
2022-07-28T18:14:22.843Z,28.30
2022-07-28T18:16:49.525Z,28.00
2022-07-28T18:19:16.194Z,27.80
2022-07-28T18:21:43.595Z,27.50
2022-07-28T18:24:10.275Z,27.30
2022-07-28T18:26:36.928Z,27.10
2022-07-28T18:29:03.629Z,26.90
2022-07-28T18:31:30.364Z,26.70
2022-07-28T18:33:57.161Z,26.50
2022-07-28T18:36:23.835Z,26.40
2022-07-28T18:38:50.495Z,26.20
2022-07-28T18:41:17.663Z,26.10
2022-07-28T18:43:44.312Z,26.00
2022-07-28T18:46:11.072Z,25.90
2022-07-28T18:48:38.230Z,25.70
2022-07-28T18:51:04.975Z,25.60
2022-07-28T18:53:31.716Z,25.60
2022-07-28T18:55:58.516Z,25.50
2022-07-28T18:58:25.236Z,25.40
2022-07-28T19:00:51.988Z,25.30
2022-07-28T19:03:18.798Z,25.30
2022-07-28T19:05:46.432Z,25.20
2022-07-28T19:08:13.382Z,25.10
2022-07-28T19:10:40.283Z,25.00
2022-07-28T19:13:09.325Z,24.90
2022-07-28T19:15:46.154Z,24.90
2022-07-28T19:18:13.250Z,24.80
2022-07-28T19:20:40.491Z,24.70
2022-07-28T19:23:07.496Z,24.70
2022-07-28T19:25:36.188Z,24.60
2022-07-28T19:28:03.559Z,24.50
2022-07-28T19:30:31.941Z,24.50
2022-07-28T19:32:58.928Z,24.40
2022-07-28T19:35:25.780Z,24.40
2022-07-28T19:37:52.615Z,24.40
2022-07-28T19:40:19.367Z,24.40
2022-07-28T19:42:48.483Z,24.30
2022-07-28T19:45:15.530Z,24.30
2022-07-28T19:47:42.650Z,24.30
2022-07-28T19:50:09.400Z,24.20
2022-07-28T19:52:37.480Z,24.10
2022-07-28T19:55:06.115Z,24.10
2022-07-28T19:57:33.320Z,24.10
2022-07-28T20:00:02.057Z,24.00
2022-07-28T20:02:29.450Z,24.00
2022-07-28T20:04:56.196Z,23.90
2022-07-28T20:07:23.814Z,23.90
2022-07-28T20:09:50.531Z,23.80
2022-07-28T20:12:17.660Z,23.80
2022-07-28T20:14:44.320Z,23.80
2022-07-28T20:17:20.107Z,23.80
2022-07-28T20:19:57.668Z,23.70
2022-07-28T20:22:25.085Z,23.80
2022-07-28T20:24:51.928Z,23.80
2022-07-28T20:27:18.762Z,23.80
2022-07-28T20:29:45.527Z,23.80
2022-07-28T20:32:12.194Z,23.80
2022-07-28T20:34:39.102Z,23.70
2022-07-28T20:37:06.256Z,23.70
2022-07-28T20:39:45.752Z,23.70
2022-07-28T20:42:12.443Z,23.70
2022-07-28T20:44:39.117Z,23.70
2022-07-28T20:47:05.878Z,23.60
2022-07-28T20:49:32.752Z,23.60
2022-07-28T20:51:59.710Z,23.50
2022-07-28T20:54:26.503Z,23.50
2022-07-28T20:56:53.793Z,23.40
2022-07-28T20:59:20.554Z,23.30
2022-07-28T21:01:47.492Z,23.30
2022-07-28T21:04:15.634Z,23.20
2022-07-28T21:06:52.095Z,23.10
2022-07-28T21:09:19.571Z,23.00
2022-07-28T21:11:46.292Z,22.90
2022-07-28T21:14:13.327Z,22.80
2022-07-28T21:16:40.284Z,22.70
2022-07-28T21:19:08.570Z,22.60
2022-07-28T21:21:35.496Z,22.50
2022-07-28T21:24:02.213Z,22.40
2022-07-28T21:26:28.920Z,22.40
2022-07-28T21:29:10.941Z,22.20
2022-07-28T21:32:04.087Z,22.00
2022-07-28T21:34:26.550Z,22.00
2022-07-28T21:36:53.292Z,21.90
2022-07-28T21:39:19.979Z,21.90
2022-07-28T21:41:46.862Z,21.80
2022-07-28T21:44:13.746Z,21.80
2022-07-28T21:46:42.851Z,21.90
2022-07-28T21:49:09.650Z,21.90
2022-07-28T21:51:36.443Z,21.90
2022-07-28T21:54:04.216Z,21.90
2022-07-28T21:56:34.232Z,21.80
2022-07-28T21:59:01.809Z,21.80
2022-07-28T22:01:28.956Z,21.80
2022-07-28T22:03:55.990Z,21.80
2022-07-28T22:06:23.175Z,21.70
2022-07-28T22:08:53.406Z,21.70
2022-07-28T22:11:21.863Z,21.70
2022-07-28T22:13:48.621Z,21.70
2022-07-28T22:16:15.421Z,21.60
2022-07-28T22:18:42.117Z,21.60
2022-07-28T22:21:08.833Z,21.60
2022-07-28T22:23:35.603Z,21.60
2022-07-28T22:26:02.532Z,21.50
2022-07-28T22:28:30.661Z,21.40
2022-07-28T22:30:58.933Z,21.40
2022-07-28T22:33:36.117Z,21.40
2022-07-28T22:36:04.565Z,21.30
2022-07-28T22:38:31.673Z,21.30
2022-07-28T22:40:58.608Z,21.10
2022-07-28T22:43:25.323Z,21.10
2022-07-28T22:45:52.061Z,21.00
2022-07-28T22:48:19.170Z,20.80
2022-07-28T22:50:45.843Z,20.60
2022-07-28T22:53:12.510Z,20.40
2022-07-28T22:55:40.300Z,20.20
2022-07-28T22:58:07.153Z,20.20
2022-07-28T23:00:36.369Z,20.10
2022-07-28T23:03:04.268Z,20.10
2022-07-28T23:05:31.040Z,20.10
2022-07-28T23:07:58.737Z,20.00
2022-07-28T23:10:26.516Z,19.90
2022-07-28T23:12:57.274Z,19.80
2022-07-28T23:15:25.269Z,19.90
2022-07-28T23:18:11.177Z,19.80
2022-07-28T23:20:38.993Z,19.80
2022-07-28T23:23:06.136Z,19.80
2022-07-28T23:25:33.547Z,19.80
2022-07-28T23:28:00.523Z,19.80
2022-07-28T23:30:27.261Z,19.80
2022-07-28T23:32:54.584Z,19.80
2022-07-28T23:35:21.336Z,19.70
2022-07-28T23:37:48.053Z,19.70
2022-07-28T23:40:14.852Z,19.70
2022-07-28T23:42:41.646Z,19.70
2022-07-28T23:45:09.360Z,19.70
2022-07-28T23:47:36.078Z,19.70
2022-07-28T23:50:04.355Z,19.60
2022-07-28T23:52:31.046Z,19.50
2022-07-28T23:54:58.006Z,19.50
2022-07-28T23:57:24.686Z,19.40
2022-07-28T23:59:53.081Z,19.40
